createdAt,value
2023-05-23T00:01:25.711Z,98792.94
2023-05-23T00:03:58.002Z,98781.19
2023-05-23T00:06:29.752Z,98791.06
2023-05-23T00:09:02.076Z,98792.59
2023-05-23T00:11:33.780Z,98791.69
2023-05-23T00:14:08.323Z,98793.31
2023-05-23T00:16:45.586Z,98798.97
2023-05-23T00:19:20.182Z,98804.66
2023-05-23T00:21:53.865Z,98800.03
2023-05-23T00:24:25.817Z,98797.94
2023-05-23T00:26:59.030Z,98796.06
2023-05-23T00:29:30.746Z,98803.03
2023-05-23T00:32:02.616Z,98794.34
2023-05-23T00:34:34.623Z,98799.44
2023-05-23T00:37:06.334Z,98795.50
2023-05-23T00:39:37.942Z,98804.09
2023-05-23T00:42:09.572Z,98803.63
2023-05-23T00:44:41.238Z,98796.19
2023-05-23T00:47:13.966Z,98791.66
2023-05-23T00:49:45.834Z,98792.72
2023-05-23T00:52:17.654Z,98791.88
2023-05-23T00:54:49.722Z,98794.78
2023-05-23T00:57:22.718Z,98792.13
2023-05-23T00:59:54.543Z,98791.06
2023-05-23T01:02:27.916Z,98783.75
2023-05-23T01:05:03.297Z,98791.41
2023-05-23T01:07:34.940Z,98783.75
2023-05-23T01:10:07.026Z,98784.69
2023-05-23T01:13:11.610Z,98776.06
2023-05-23T01:15:49.145Z,98769.56
2023-05-23T01:18:47.606Z,98770.47
2023-05-23T01:21:19.684Z,98767.09
2023-05-23T01:24:00.268Z,98764.53
2023-05-23T01:26:48.333Z,98750.09
2023-05-23T01:29:24.779Z,98749.03
2023-05-23T01:31:58.364Z,98749.09
2023-05-23T01:34:31.472Z,98745.63
2023-05-23T01:37:07.928Z,98754.44
2023-05-23T01:39:42.179Z,98759.78
2023-05-23T01:42:14.132Z,98764.69
2023-05-23T01:44:46.283Z,98765.06
2023-05-23T01:47:18.114Z,98765.88
2023-05-23T01:49:51.102Z,98768.31
2023-05-23T01:52:23.369Z,98772.41
2023-05-23T01:54:56.290Z,98782.97
2023-05-23T01:57:29.748Z,98784.81
2023-05-23T02:00:06.398Z,98786.19
2023-05-23T02:02:45.161Z,98780.41
2023-05-23T02:05:17.285Z,98787.25
2023-05-23T02:07:50.186Z,98792.81
2023-05-23T02:10:22.712Z,98795.50
2023-05-23T02:12:54.393Z,98794.91
2023-05-23T02:15:26.139Z,98797.56
2023-05-23T02:17:57.899Z,98803.50
2023-05-23T02:20:29.661Z,98813.97
2023-05-23T02:23:01.336Z,98812.34
2023-05-23T02:25:32.994Z,98818.19
2023-05-23T02:28:04.634Z,98801.06
2023-05-23T02:30:36.299Z,98809.63
2023-05-23T02:33:09.218Z,98811.34
2023-05-23T02:35:41.314Z,98821.38
2023-05-23T02:38:15.082Z,98813.75
2023-05-23T02:40:46.899Z,98824.44
2023-05-23T02:43:18.604Z,98817.69
2023-05-23T02:45:50.233Z,98809.06
2023-05-23T02:48:21.852Z,98814.94
2023-05-23T02:50:53.707Z,98813.16
2023-05-23T02:53:25.373Z,98808.09
2023-05-23T02:55:57.012Z,98821.53
2023-05-23T02:58:29.930Z,98812.56
2023-05-23T03:01:06.994Z,98809.91
2023-05-23T03:03:40.135Z,98811.09
2023-05-23T03:06:14.523Z,98807.84
2023-05-23T03:08:46.424Z,98812.31
2023-05-23T03:11:18.080Z,98793.59
2023-05-23T03:13:49.705Z,98791.66
2023-05-23T03:16:22.434Z,98797.00
2023-05-23T03:18:54.201Z,98791.44
2023-05-23T03:21:25.981Z,98784.63
2023-05-23T03:23:57.844Z,98789.53
2023-05-23T03:26:29.483Z,98778.19
2023-05-23T03:29:01.484Z,98784.34
2023-05-23T03:31:33.144Z,98779.22
2023-05-23T03:34:08.362Z,98782.25
2023-05-23T03:36:41.344Z,98793.31
2023-05-23T03:39:13.383Z,98793.66
2023-05-23T03:41:45.076Z,98784.97
2023-05-23T03:44:17.105Z,98783.72
2023-05-23T03:46:49.369Z,98780.25
2023-05-23T03:49:22.221Z,98779.06
2023-05-23T03:51:53.909Z,98780.91
2023-05-23T03:54:26.044Z,98776.69
2023-05-23T03:56:57.835Z,98772.25
2023-05-23T03:59:29.978Z,98766.63
2023-05-23T04:02:02.547Z,98767.31
2023-05-23T04:04:34.506Z,98765.41
2023-05-23T04:07:08.644Z,98763.00
2023-05-23T04:09:40.461Z,98770.41
2023-05-23T04:12:14.375Z,98764.72
2023-05-23T04:14:48.536Z,98767.94
2023-05-23T04:17:21.248Z,98766.09
2023-05-23T04:19:54.376Z,98768.63
2023-05-23T04:22:26.079Z,98762.63
2023-05-23T04:24:58.257Z,98767.31
2023-05-23T04:27:34.658Z,98779.38
2023-05-23T04:30:09.254Z,98785.38
2023-05-23T04:32:44.260Z,98781.13
2023-05-23T04:35:15.986Z,98785.13
2023-05-23T04:37:47.692Z,98776.38
2023-05-23T04:40:19.368Z,98774.88
2023-05-23T04:43:03.999Z,98780.44
2023-05-23T04:46:11.024Z,98775.09
2023-05-23T04:48:46.718Z,98775.00
2023-05-23T04:51:18.302Z,98775.59
2023-05-23T04:53:57.386Z,98767.72
2023-05-23T04:56:29.687Z,98759.53
2023-05-23T04:59:02.356Z,98761.75
2023-05-23T05:01:34.976Z,98752.59
2023-05-23T05:04:06.921Z,98755.50
2023-05-23T05:06:41.315Z,98749.03
2023-05-23T05:09:14.249Z,98746.50
2023-05-23T05:11:47.794Z,98730.47
2023-05-23T05:14:19.820Z,98731.75
2023-05-23T05:16:51.692Z,98726.19
2023-05-23T05:19:25.765Z,98726.19
2023-05-23T05:21:57.916Z,98713.06
2023-05-23T05:24:29.895Z,98738.28
2023-05-23T05:27:01.565Z,98738.50
2023-05-23T05:29:33.897Z,98745.03
2023-05-23T05:32:08.645Z,98743.50
2023-05-23T05:34:40.640Z,98746.25
2023-05-23T05:37:14.230Z,98744.13
2023-05-23T05:39:47.322Z,98740.34
2023-05-23T05:42:19.543Z,98749.22
2023-05-23T05:44:51.299Z,98748.28
2023-05-23T05:47:23.083Z,98754.84
2023-05-23T05:50:27.844Z,98758.34
2023-05-23T05:52:59.680Z,98755.22
2023-05-23T05:55:33.169Z,98761.53
2023-05-23T05:58:05.364Z,98759.31
2023-05-23T06:00:51.334Z,98758.22
2023-05-23T06:03:24.751Z,98755.91
2023-05-23T06:05:59.694Z,98754.16
2023-05-23T06:08:31.718Z,98751.59
2023-05-23T06:11:03.497Z,98767.25
2023-05-23T06:13:35.927Z,98771.56
2023-05-23T06:16:07.873Z,98766.94
2023-05-23T06:18:39.770Z,98764.66
2023-05-23T06:21:11.618Z,98765.53
2023-05-23T06:23:43.610Z,98773.84
2023-05-23T06:26:18.467Z,98789.81
2023-05-23T06:28:50.508Z,98784.72
2023-05-23T06:31:22.352Z,98788.13
2023-05-23T06:33:54.617Z,98791.38
2023-05-23T06:36:26.550Z,98795.06
2023-05-23T06:39:00.188Z,98786.09
2023-05-23T06:41:32.090Z,98787.94
2023-05-23T06:44:03.898Z,98803.22
2023-05-23T06:46:38.280Z,98796.66
2023-05-23T06:49:15.586Z,98800.59
2023-05-23T06:51:50.052Z,98805.94
2023-05-23T06:54:21.933Z,98800.31
2023-05-23T06:56:54.327Z,98806.25
2023-05-23T06:59:26.126Z,98805.78
2023-05-23T07:01:59.649Z,98810.56
2023-05-23T07:04:31.820Z,98811.72
2023-05-23T07:07:08.501Z,98809.66
2023-05-23T07:09:43.261Z,98814.06
2023-05-23T07:12:19.843Z,98813.50
2023-05-23T07:14:52.987Z,98806.72
2023-05-23T07:17:26.039Z,98808.88
2023-05-23T07:19:57.833Z,98810.81
2023-05-23T07:22:29.838Z,98809.13
2023-05-23T07:25:01.755Z,98814.84
2023-05-23T07:27:37.505Z,98810.66
2023-05-23T07:30:10.008Z,98809.88
2023-05-23T07:32:42.979Z,98814.53
2023-05-23T07:35:18.828Z,98817.16
2023-05-23T07:37:51.810Z,98825.44
2023-05-23T07:40:23.784Z,98816.81
2023-05-23T07:42:55.932Z,98817.22
2023-05-23T07:45:27.832Z,98826.34
2023-05-23T07:47:59.955Z,98824.47
2023-05-23T07:50:33.898Z,98824.13
2023-05-23T07:53:06.509Z,98824.81
2023-05-23T07:55:39.218Z,98829.88
2023-05-23T07:58:11.016Z,98835.50
2023-05-23T08:00:44.308Z,98843.63
2023-05-23T08:03:29.839Z,98840.88
2023-05-23T08:06:10.219Z,98846.16
2023-05-23T08:08:43.804Z,98838.41
2023-05-23T08:11:15.818Z,98841.94
2023-05-23T08:13:51.509Z,98836.38
2023-05-23T08:16:41.823Z,98840.34
2023-05-23T08:19:22.001Z,98848.00
2023-05-23T08:21:54.481Z,98842.34
2023-05-23T08:24:26.970Z,98844.81
2023-05-23T08:26:59.369Z,98855.06
2023-05-23T08:32:31.202Z,98857.75
2023-05-23T09:49:27.588Z,98929.75
2023-05-23T09:52:01.275Z,98927.19
2023-05-23T09:54:33.075Z,98928.63
2023-05-23T09:57:10.270Z,98925.97
2023-05-23T09:59:45.424Z,98925.44
2023-05-23T10:02:23.476Z,98915.69
2023-05-23T10:04:57.248Z,98927.53
2023-05-23T10:07:29.567Z,98925.41
2023-05-23T10:10:05.987Z,98924.06
2023-05-23T10:12:44.503Z,98925.13
2023-05-23T10:15:18.594Z,98921.53
2023-05-23T10:18:06.033Z,98922.59
2023-05-23T10:20:44.243Z,98924.78
2023-05-23T10:23:16.928Z,98919.66
2023-05-23T10:25:49.085Z,98920.75
2023-05-23T10:28:21.818Z,98930.44
2023-05-23T10:30:53.683Z,98913.84
2023-05-23T10:33:29.213Z,98920.13
2023-05-23T10:36:09.265Z,98916.81
2023-05-23T10:38:56.462Z,98913.03
2023-05-23T10:42:01.135Z,98919.31
2023-05-23T10:44:33.094Z,98905.78
2023-05-23T10:47:05.249Z,98911.63
2023-05-23T10:49:45.391Z,98901.72
2023-05-23T10:52:18.305Z,98904.13
2023-05-23T10:54:55.000Z,98899.97
2023-05-23T10:57:29.990Z,98898.97
2023-05-23T11:00:01.851Z,98896.56
2023-05-23T11:02:34.020Z,98904.84
2023-05-23T11:05:28.115Z,98913.59
2023-05-23T11:08:15.286Z,98908.13
2023-05-23T11:11:01.191Z,98910.91
2023-05-23T11:14:02.811Z,98908.84
2023-05-23T11:16:42.768Z,98908.03
2023-05-23T11:19:30.794Z,98910.00
2023-05-23T11:22:06.084Z,98904.47
2023-05-23T11:24:52.031Z,98908.63
2023-05-23T11:27:35.109Z,98915.06
2023-05-23T11:30:17.477Z,98911.72
2023-05-23T11:32:54.822Z,98913.34
2023-05-23T11:35:27.755Z,98910.19
2023-05-23T11:37:59.915Z,98907.00
2023-05-23T11:40:37.220Z,98906.25
2023-05-23T11:43:11.339Z,98897.56
2023-05-23T11:45:43.338Z,98900.56
2023-05-23T11:48:16.912Z,98904.06
2023-05-23T11:50:53.108Z,98899.91
2023-05-23T11:53:27.860Z,98889.72
2023-05-23T11:56:02.633Z,98903.69
2023-05-23T11:58:39.499Z,98902.22
2023-05-23T12:01:13.723Z,98910.13
2023-05-23T12:03:51.349Z,98912.31
2023-05-23T12:06:25.118Z,98918.88
2023-05-23T12:08:59.613Z,98909.56
2023-05-23T12:11:31.904Z,98903.13
2023-05-23T12:14:06.564Z,98888.38
2023-05-23T12:16:38.403Z,98892.47
2023-05-23T12:19:12.028Z,98889.25
2023-05-23T12:21:48.960Z,98889.09
2023-05-23T12:24:22.875Z,98886.03
2023-05-23T12:26:57.821Z,98888.06
2023-05-23T12:29:33.684Z,98891.75
2023-05-23T12:32:07.568Z,98889.69
2023-05-23T12:34:45.658Z,98892.38
2023-05-23T12:37:20.152Z,98887.53
2023-05-23T12:39:52.709Z,98889.69
2023-05-23T12:42:24.553Z,98894.88
2023-05-23T12:44:56.617Z,98889.25
2023-05-23T12:47:28.413Z,98883.66
2023-05-23T12:50:00.553Z,98877.50
2023-05-23T12:52:32.390Z,98898.25
2023-05-23T12:55:07.179Z,98890.88
2023-05-23T12:57:39.749Z,98890.78
2023-05-23T13:00:12.671Z,98879.97
2023-05-23T13:02:44.465Z,98894.16
2023-05-23T13:05:17.213Z,98894.41
2023-05-23T13:07:49.188Z,98891.19
2023-05-23T13:10:24.061Z,98893.31
2023-05-23T13:12:55.903Z,98895.66
2023-05-23T13:15:27.736Z,98902.47
2023-05-23T13:18:00.343Z,98905.94
2023-05-23T13:20:32.322Z,98888.91
2023-05-23T13:23:04.227Z,98894.38
2023-05-23T13:25:38.987Z,98892.47
2023-05-23T13:28:11.120Z,98885.75
2023-05-23T13:30:45.828Z,98878.84
2023-05-23T13:33:19.152Z,98892.47
2023-05-23T13:35:51.637Z,98890.50
2023-05-23T13:38:25.468Z,98885.91
2023-05-23T13:40:58.762Z,98881.94
2023-05-23T13:43:31.199Z,98888.47
2023-05-23T13:46:03.258Z,98887.19
2023-05-23T13:48:35.324Z,98882.66
2023-05-23T13:51:08.649Z,98895.91
2023-05-23T13:53:40.556Z,98888.09
2023-05-23T13:56:12.569Z,98897.59
2023-05-23T13:58:46.671Z,98905.19
2023-05-23T14:01:18.823Z,98894.91
2023-05-23T14:03:50.854Z,98892.69
2023-05-23T14:06:22.748Z,98900.03
2023-05-23T14:08:54.718Z,98897.88
2023-05-23T14:11:26.546Z,98894.94
2023-05-23T14:13:58.294Z,98900.56
2023-05-23T14:16:30.296Z,98895.69
2023-05-23T14:19:02.272Z,98902.63
2023-05-23T14:21:34.416Z,98893.97
2023-05-23T14:24:06.350Z,98896.41
2023-05-23T14:26:38.207Z,98881.84
2023-05-23T14:29:10.019Z,98895.91
2023-05-23T14:31:42.027Z,98903.41
2023-05-23T14:34:13.895Z,98898.94
2023-05-23T14:36:48.980Z,98894.72
2023-05-23T14:39:20.775Z,98893.03
2023-05-23T14:41:52.756Z,98904.91
2023-05-23T14:44:25.429Z,98907.81
2023-05-23T14:46:57.484Z,98907.53
2023-05-23T14:49:29.308Z,98912.97
2023-05-23T14:52:01.239Z,98915.88
2023-05-23T14:54:33.193Z,98921.66
2023-05-23T14:57:05.226Z,98921.41
2023-05-23T14:59:37.125Z,98922.22
2023-05-23T15:02:09.117Z,98920.19
2023-05-23T15:04:41.061Z,98921.44
2023-05-23T15:07:14.915Z,98927.34
2023-05-23T15:09:47.873Z,98928.06
2023-05-23T15:12:20.944Z,98927.38
2023-05-23T15:14:52.683Z,98938.16
2023-05-23T15:17:26.726Z,98937.41
2023-05-23T15:19:58.787Z,98944.38
2023-05-23T15:22:37.896Z,98939.19
2023-05-23T15:25:11.576Z,98942.97
2023-05-23T15:27:44.965Z,98951.81
2023-05-23T15:30:17.087Z,98952.25
2023-05-23T15:32:49.346Z,98948.16
2023-05-23T15:35:21.227Z,98948.31
2023-05-23T15:37:53.143Z,98948.72
2023-05-23T15:40:25.094Z,98946.59
2023-05-23T15:42:56.887Z,98954.00
2023-05-23T15:45:28.676Z,98945.34
2023-05-23T15:48:00.653Z,98948.63
2023-05-23T15:50:32.423Z,98948.41
2023-05-23T15:53:04.279Z,98955.34
2023-05-23T15:55:37.219Z,98960.97
2023-05-23T15:58:10.718Z,98964.84
2023-05-23T16:00:42.875Z,98970.22
2023-05-23T16:03:14.987Z,98963.13
2023-05-23T16:05:46.786Z,98975.72
2023-05-23T16:08:21.546Z,98975.03
2023-05-23T16:10:53.321Z,98972.41
2023-05-23T16:13:25.189Z,98967.34
2023-05-23T16:15:57.190Z,98975.25
2023-05-23T16:18:29.040Z,98970.88
2023-05-23T16:21:00.825Z,98969.13
2023-05-23T16:23:32.715Z,98978.56
2023-05-23T16:26:05.105Z,98965.38
2023-05-23T16:28:36.914Z,98971.97
2023-05-23T16:31:08.769Z,98977.94
2023-05-23T16:33:40.634Z,98989.59
2023-05-23T16:36:12.438Z,98986.16
2023-05-23T16:38:44.373Z,98994.44
2023-05-23T16:41:16.442Z,98994.22
2023-05-23T16:43:48.302Z,98996.00
2023-05-23T16:46:22.267Z,99004.06
2023-05-23T16:48:54.377Z,99010.47
2023-05-23T16:51:26.247Z,99004.59
2023-05-23T16:53:58.205Z,99011.22
2023-05-23T16:56:30.125Z,99013.97
2023-05-23T16:59:01.962Z,99012.66
2023-05-23T17:01:36.100Z,99014.72
2023-05-23T17:04:07.963Z,99014.06
2023-05-23T17:06:39.974Z,99019.69
2023-05-23T17:09:13.844Z,99017.41
2023-05-23T17:11:45.706Z,99014.81
2023-05-23T17:14:17.697Z,99019.50
2023-05-23T17:16:49.472Z,99018.44
2023-05-23T17:19:21.778Z,99013.66
2023-05-23T17:21:54.253Z,99022.75
2023-05-23T17:24:26.191Z,99031.53
2023-05-23T17:26:58.045Z,99033.22
2023-05-23T17:29:29.912Z,99033.13
2023-05-23T17:32:01.866Z,99037.16
2023-05-23T17:34:35.857Z,99037.56
2023-05-23T17:37:08.344Z,99040.34
2023-05-23T17:39:40.277Z,99048.59
2023-05-23T17:42:12.861Z,99047.72
2023-05-23T17:44:45.813Z,99054.53
2023-05-23T17:47:18.545Z,99052.53
2023-05-23T17:49:50.615Z,99058.28
2023-05-23T17:52:22.418Z,99065.28
2023-05-23T17:54:57.975Z,99061.09
2023-05-23T17:57:32.851Z,99066.00
2023-05-23T18:00:07.893Z,99076.84
2023-05-23T18:02:47.104Z,99075.66
2023-05-23T18:05:24.713Z,99081.84
2023-05-23T18:07:56.856Z,99076.25
2023-05-23T18:10:29.898Z,99079.75
2023-05-23T18:13:01.663Z,99084.41
2023-05-23T18:15:34.848Z,99084.38
2023-05-23T18:18:06.866Z,99084.22
2023-05-23T18:20:38.823Z,99080.25
2023-05-23T18:23:18.464Z,99091.97
2023-05-23T18:25:54.436Z,99093.06
2023-05-23T18:28:26.466Z,99092.34
2023-05-23T18:30:58.345Z,99093.72
2023-05-23T18:33:32.301Z,99099.44
2023-05-23T18:36:10.082Z,99108.50
2023-05-23T18:38:42.159Z,99109.56
2023-05-23T18:41:15.072Z,99113.91
2023-05-23T18:43:46.953Z,99123.72
2023-05-23T18:46:18.812Z,99117.19
2023-05-23T18:48:51.045Z,99130.56
2023-05-23T18:51:26.797Z,99135.41
2023-05-23T18:53:59.910Z,99138.06
2023-05-23T18:56:34.877Z,99148.94
2023-05-23T18:59:06.828Z,99157.75
2023-05-23T19:01:38.711Z,99152.84
2023-05-23T19:04:10.656Z,99158.81
2023-05-23T19:06:45.519Z,99168.59
2023-05-23T19:09:19.722Z,99172.44
2023-05-23T19:11:51.570Z,99175.13
2023-05-23T19:14:23.919Z,99181.28
2023-05-23T19:16:55.728Z,99180.41
2023-05-23T19:19:30.629Z,99195.53
2023-05-23T19:22:03.540Z,99187.78
2023-05-23T19:24:37.723Z,99190.50
2023-05-23T19:27:09.726Z,99198.88
2023-05-23T19:29:42.348Z,99198.53
2023-05-23T19:32:15.303Z,99210.97
2023-05-23T19:34:47.566Z,99205.72
2023-05-23T19:37:19.404Z,99204.53
2023-05-23T19:39:51.181Z,99209.47
2023-05-23T19:42:23.802Z,99203.97
2023-05-23T19:44:55.559Z,99219.78
2023-05-23T19:47:30.222Z,99210.16
2023-05-23T19:50:02.785Z,99224.94
2023-05-23T19:52:34.580Z,99228.88
2023-05-23T19:55:07.046Z,99229.47
2023-05-23T19:57:38.861Z,99234.59
2023-05-23T20:00:11.250Z,99247.13
2023-05-23T20:02:43.154Z,99232.38
2023-05-23T20:05:14.960Z,99251.44
2023-05-23T20:07:46.952Z,99248.75
2023-05-23T20:10:18.721Z,99248.56
2023-05-23T20:12:50.740Z,99245.69
2023-05-23T20:15:35.426Z,99254.31
2023-05-23T20:18:11.682Z,99253.06
2023-05-23T20:20:43.669Z,99254.72
2023-05-23T20:23:15.724Z,99265.16
2023-05-23T20:25:47.566Z,99266.97
2023-05-23T20:28:19.389Z,99261.88
2023-05-23T20:30:51.698Z,99265.13
2023-05-23T20:33:23.738Z,99273.75
2023-05-23T20:35:55.680Z,99280.03
2023-05-23T20:38:27.592Z,99269.38
2023-05-23T20:41:02.799Z,99272.84
2023-05-23T20:43:37.362Z,99277.78
2023-05-23T20:46:09.989Z,99279.81
2023-05-23T20:48:42.021Z,99280.84
2023-05-23T20:51:14.352Z,99291.03
2023-05-23T20:53:46.340Z,99293.53
2023-05-23T20:56:18.269Z,99300.25
2023-05-23T20:58:50.167Z,99293.69
2023-05-23T21:01:23.046Z,99293.47
2023-05-23T21:03:55.648Z,99296.09
2023-05-23T21:06:27.397Z,99303.47
2023-05-23T21:09:00.347Z,99304.06
2023-05-23T21:11:32.140Z,99304.06
2023-05-23T21:14:03.901Z,99306.75
2023-05-23T21:16:35.674Z,99308.31
2023-05-23T21:19:07.562Z,99311.56
2023-05-23T21:21:39.547Z,99305.22
2023-05-23T21:24:11.298Z,99307.03
2023-05-23T21:26:43.576Z,99308.91
2023-05-23T21:29:16.652Z,99300.56
2023-05-23T21:31:48.605Z,99306.75
2023-05-23T21:34:24.267Z,99303.84
2023-05-23T21:36:56.489Z,99310.19
2023-05-23T21:39:39.271Z,99313.44
2023-05-23T21:42:20.244Z,99306.25
2023-05-23T21:44:52.101Z,99308.69
2023-05-23T21:47:25.144Z,99318.25
2023-05-23T21:49:57.047Z,99320.50
2023-05-23T21:52:28.789Z,99327.81
2023-05-23T21:55:00.573Z,99334.78
2023-05-23T21:57:32.574Z,99336.44
2023-05-23T22:00:04.846Z,99341.16
2023-05-23T22:02:44.660Z,99350.78
2023-05-23T22:05:16.768Z,99353.88
2023-05-23T22:07:48.588Z,99351.84
2023-05-23T22:10:20.432Z,99344.06
2023-05-23T22:12:52.183Z,99339.75
2023-05-23T22:15:24.204Z,99358.00
2023-05-23T22:17:56.288Z,99352.06
2023-05-23T22:20:29.742Z,99355.75
2023-05-23T22:23:03.653Z,99355.50
2023-05-23T22:25:38.338Z,99356.53
2023-05-23T22:28:12.359Z,99360.66
2023-05-23T22:30:44.426Z,99352.22
2023-05-23T22:33:16.403Z,99360.19
2023-05-23T22:35:48.145Z,99364.69
2023-05-23T22:38:19.900Z,99360.56
2023-05-23T22:40:51.692Z,99360.75
2023-05-23T22:43:23.552Z,99358.69
2023-05-23T22:45:55.880Z,99355.56
2023-05-23T22:48:28.286Z,99358.03
2023-05-23T22:51:04.114Z,99364.97
2023-05-23T22:53:35.912Z,99361.22
2023-05-23T22:56:07.666Z,99359.03
2023-05-23T22:58:39.483Z,99361.88
2023-05-23T23:01:11.331Z,99359.16
2023-05-23T23:03:43.256Z,99358.09
2023-05-23T23:06:15.122Z,99374.03
2023-05-23T23:08:47.698Z,99365.44
2023-05-23T23:11:19.461Z,99368.09
2023-05-23T23:13:51.229Z,99374.16
2023-05-23T23:16:24.542Z,99377.31
2023-05-23T23:18:56.607Z,99376.44
2023-05-23T23:21:28.437Z,99377.41
2023-05-23T23:24:00.307Z,99380.25
2023-05-23T23:26:32.119Z,99386.97
2023-05-23T23:29:04.098Z,99387.16
2023-05-23T23:31:36.113Z,99388.78
2023-05-23T23:34:08.366Z,99388.63
2023-05-23T23:36:40.209Z,99389.63
2023-05-23T23:39:11.919Z,99392.47
2023-05-23T23:41:43.763Z,99396.59
2023-05-23T23:44:18.743Z,99403.97
2023-05-23T23:46:50.570Z,99392.53
2023-05-23T23:49:22.399Z,99399.59
2023-05-23T23:51:54.298Z,99401.19
2023-05-23T23:54:26.432Z,99398.69
2023-05-23T23:56:58.544Z,99400.75
2023-05-23T23:59:30.310Z,99404.09
